sensor_id;sensor_type;location;lat;lon;timestamp;temperature;humidity
20125;DHT22;10223;50.862;4.360;2024-03-07T00:00:34;8.70;99.90
20125;DHT22;10223;50.862;4.360;2024-03-07T00:03:03;8.80;99.90
20125;DHT22;10223;50.862;4.360;2024-03-07T00:05:30;8.90;99.90
20125;DHT22;10223;50.862;4.360;2024-03-07T00:07:57;9.00;99.90
20125;DHT22;10223;50.862;4.360;2024-03-07T00:10:25;9.10;99.90
20125;DHT22;10223;50.862;4.360;2024-03-07T00:12:52;9.20;99.90
20125;DHT22;10223;50.862;4.360;2024-03-07T00:15:19;9.20;99.90
20125;DHT22;10223;50.862;4.360;2024-03-07T00:17:46;9.10;99.90
20125;DHT22;10223;50.862;4.360;2024-03-07T00:20:15;9.20;99.90
20125;DHT22;10223;50.862;4.360;2024-03-07T00:22:45;9.20;99.90
20125;DHT22;10223;50.862;4.360;2024-03-07T00:25:12;8.90;99.90
20125;DHT22;10223;50.862;4.360;2024-03-07T00:27:40;8.70;99.90
20125;DHT22;10223;50.862;4.360;2024-03-07T00:30:08;8.60;99.90
20125;DHT22;10223;50.862;4.360;2024-03-07T00:32:35;8.60;99.90
20125;DHT22;10223;50.862;4.360;2024-03-07T00:35:05;8.50;99.90
20125;DHT22;10223;50.862;4.360;2024-03-07T00:37:35;8.40;99.90
20125;DHT22;10223;50.862;4.360;2024-03-07T00:40:02;8.40;99.90
20125;DHT22;10223;50.862;4.360;2024-03-07T00:42:30;8.30;99.90
20125;DHT22;10223;50.862;4.360;2024-03-07T00:44:57;8.30;99.90
20125;DHT22;10223;50.862;4.360;2024-03-07T00:47:24;8.20;99.90
20125;DHT22;10223;50.862;4.360;2024-03-07T00:49:51;8.20;99.90
20125;DHT22;10223;50.862;4.360;2024-03-07T00:52:19;8.40;99.90
20125;DHT22;10223;50.862;4.360;2024-03-07T00:54:48;8.40;99.90
20125;DHT22;10223;50.862;4.360;2024-03-07T00:57:15;8.20;99.90
20125;DHT22;10223;50.862;4.360;2024-03-07T00:59:42;8.20;99.90
20125;DHT22;10223;50.862;4.360;2024-03-07T01:02:09;8.20;99.90
20125;DHT22;10223;50.862;4.360;2024-03-07T01:04:36;8.20;99.90
20125;DHT22;10223;50.862;4.360;2024-03-07T01:07:03;8.30;99.90
20125;DHT22;10223;50.862;4.360;2024-03-07T01:09:30;8.10;99.90
20125;DHT22;10223;50.862;4.360;2024-03-07T01:11:59;8.20;99.90
20125;DHT22;10223;50.862;4.360;2024-03-07T01:14:29;8.20;99.90
20125;DHT22;10223;50.862;4.360;2024-03-07T01:16:56;8.30;99.90
20125;DHT22;10223;50.862;4.360;2024-03-07T01:19:23;8.30;99.90
20125;DHT22;10223;50.862;4.360;2024-03-07T01:21:51;8.30;99.90
20125;DHT22;10223;50.862;4.360;2024-03-07T01:24:18;8.20;99.90
20125;DHT22;10223;50.862;4.360;2024-03-07T01:26:46;8.10;99.90
20125;DHT22;10223;50.862;4.360;2024-03-07T01:29:14;8.00;99.90
20125;DHT22;10223;50.862;4.360;2024-03-07T01:31:41;8.00;99.90
20125;DHT22;10223;50.862;4.360;2024-03-07T01:34:08;8.00;99.90
20125;DHT22;10223;50.862;4.360;2024-03-07T01:36:35;8.00;99.90
20125;DHT22;10223;50.862;4.360;2024-03-07T01:39:02;7.90;99.90
20125;DHT22;10223;50.862;4.360;2024-03-07T01:41:29;7.80;99.90
20125;DHT22;10223;50.862;4.360;2024-03-07T01:43:56;7.80;99.90
20125;DHT22;10223;50.862;4.360;2024-03-07T01:46:25;7.90;99.90
20125;DHT22;10223;50.862;4.360;2024-03-07T01:48:52;7.80;99.90
20125;DHT22;10223;50.862;4.360;2024-03-07T01:51:20;7.80;99.90
20125;DHT22;10223;50.862;4.360;2024-03-07T01:53:48;7.90;99.90
20125;DHT22;10223;50.862;4.360;2024-03-07T01:56:16;7.90;99.90
20125;DHT22;10223;50.862;4.360;2024-03-07T01:58:46;8.00;99.90
20125;DHT22;10223;50.862;4.360;2024-03-07T02:01:13;8.00;99.90
20125;DHT22;10223;50.862;4.360;2024-03-07T02:03:42;8.10;99.90
20125;DHT22;10223;50.862;4.360;2024-03-07T02:06:09;8.20;99.90
20125;DHT22;10223;50.862;4.360;2024-03-07T02:08:37;8.20;99.90
20125;DHT22;10223;50.862;4.360;2024-03-07T02:11:05;8.10;99.90
20125;DHT22;10223;50.862;4.360;2024-03-07T02:13:32;7.80;99.90
20125;DHT22;10223;50.862;4.360;2024-03-07T02:15:59;7.70;99.90
20125;DHT22;10223;50.862;4.360;2024-03-07T02:18:26;7.60;99.90
20125;DHT22;10223;50.862;4.360;2024-03-07T02:20:54;7.50;99.90
20125;DHT22;10223;50.862;4.360;2024-03-07T02:23:21;7.40;99.90
20125;DHT22;10223;50.862;4.360;2024-03-07T02:25:48;7.40;99.90
20125;DHT22;10223;50.862;4.360;2024-03-07T02:28:15;7.50;99.90
20125;DHT22;10223;50.862;4.360;2024-03-07T02:30:42;7.60;99.90
20125;DHT22;10223;50.862;4.360;2024-03-07T02:33:11;7.60;99.90
20125;DHT22;10223;50.862;4.360;2024-03-07T02:35:38;7.60;99.90
20125;DHT22;10223;50.862;4.360;2024-03-07T02:38:06;7.60;99.90
20125;DHT22;10223;50.862;4.360;2024-03-07T02:40:34;7.50;99.90
20125;DHT22;10223;50.862;4.360;2024-03-07T02:43:01;7.60;99.90
20125;DHT22;10223;50.862;4.360;2024-03-07T02:45:30;7.70;99.90
20125;DHT22;10223;50.862;4.360;2024-03-07T02:47:57;7.50;99.90
20125;DHT22;10223;50.862;4.360;2024-03-07T02:50:24;7.50;99.90
20125;DHT22;10223;50.862;4.360;2024-03-07T02:52:51;7.30;99.90
20125;DHT22;10223;50.862;4.360;2024-03-07T02:55:19;7.30;99.90
20125;DHT22;10223;50.862;4.360;2024-03-07T02:57:46;7.40;99.90
20125;DHT22;10223;50.862;4.360;2024-03-07T03:00:14;7.40;99.90
20125;DHT22;10223;50.862;4.360;2024-03-07T03:02:55;7.30;99.90
20125;DHT22;10223;50.862;4.360;2024-03-07T03:05:22;7.50;99.90
20125;DHT22;10223;50.862;4.360;2024-03-07T03:07:50;7.20;99.90
20125;DHT22;10223;50.862;4.360;2024-03-07T03:10:22;7.10;99.90
20125;DHT22;10223;50.862;4.360;2024-03-07T03:12:52;7.10;99.90
20125;DHT22;10223;50.862;4.360;2024-03-07T03:15:20;7.00;99.90
20125;DHT22;10223;50.862;4.360;2024-03-07T03:17:48;6.80;99.90
20125;DHT22;10223;50.862;4.360;2024-03-07T03:20:15;6.80;99.90
20125;DHT22;10223;50.862;4.360;2024-03-07T03:22:51;6.90;99.90
20125;DHT22;10223;50.862;4.360;2024-03-07T03:25:18;6.90;99.90
20125;DHT22;10223;50.862;4.360;2024-03-07T03:27:47;6.90;99.90
20125;DHT22;10223;50.862;4.360;2024-03-07T03:30:14;6.90;99.90
20125;DHT22;10223;50.862;4.360;2024-03-07T03:32:44;7.00;99.90
20125;DHT22;10223;50.862;4.360;2024-03-07T03:35:12;7.00;99.90
20125;DHT22;10223;50.862;4.360;2024-03-07T03:37:40;7.00;99.90
20125;DHT22;10223;50.862;4.360;2024-03-07T03:40:08;6.90;99.90
20125;DHT22;10223;50.862;4.360;2024-03-07T03:42:36;7.00;99.90
20125;DHT22;10223;50.862;4.360;2024-03-07T03:45:06;7.10;99.90
20125;DHT22;10223;50.862;4.360;2024-03-07T03:47:34;7.10;99.90
20125;DHT22;10223;50.862;4.360;2024-03-07T03:50:03;7.00;99.90
20125;DHT22;10223;50.862;4.360;2024-03-07T03:52:30;7.00;99.90
20125;DHT22;10223;50.862;4.360;2024-03-07T03:54:57;6.90;99.90
20125;DHT22;10223;50.862;4.360;2024-03-07T03:57:25;7.00;99.90
20125;DHT22;10223;50.862;4.360;2024-03-07T03:59:52;6.90;99.90
20125;DHT22;10223;50.862;4.360;2024-03-07T04:02:21;6.90;99.90
20125;DHT22;10223;50.862;4.360;2024-03-07T04:04:49;7.00;99.90
20125;DHT22;10223;50.862;4.360;2024-03-07T04:07:17;7.00;99.90
20125;DHT22;10223;50.862;4.360;2024-03-07T04:09:44;6.80;99.90
20125;DHT22;10223;50.862;4.360;2024-03-07T04:12:12;6.80;99.90
20125;DHT22;10223;50.862;4.360;2024-03-07T04:14:39;6.90;99.90
20125;DHT22;10223;50.862;4.360;2024-03-07T04:17:07;6.90;99.90
20125;DHT22;10223;50.862;4.360;2024-03-07T04:19:36;6.80;99.90
20125;DHT22;10223;50.862;4.360;2024-03-07T04:22:04;6.80;99.90
20125;DHT22;10223;50.862;4.360;2024-03-07T04:24:31;6.80;99.90
20125;DHT22;10223;50.862;4.360;2024-03-07T04:26:59;6.70;99.90
20125;DHT22;10223;50.862;4.360;2024-03-07T04:29:26;6.70;99.90
20125;DHT22;10223;50.862;4.360;2024-03-07T04:31:53;6.70;99.90
20125;DHT22;10223;50.862;4.360;2024-03-07T04:34:20;6.70;99.90
20125;DHT22;10223;50.862;4.360;2024-03-07T04:36:49;6.70;99.90
20125;DHT22;10223;50.862;4.360;2024-03-07T04:39:16;6.70;99.90
20125;DHT22;10223;50.862;4.360;2024-03-07T04:41:53;6.70;99.90
20125;DHT22;10223;50.862;4.360;2024-03-07T04:44:20;6.70;99.90
20125;DHT22;10223;50.862;4.360;2024-03-07T04:46:48;6.60;99.90
20125;DHT22;10223;50.862;4.360;2024-03-07T04:49:21;6.70;99.90
20125;DHT22;10223;50.862;4.360;2024-03-07T04:51:50;6.70;99.90
20125;DHT22;10223;50.862;4.360;2024-03-07T04:54:17;6.70;99.90
20125;DHT22;10223;50.862;4.360;2024-03-07T04:56:44;6.90;99.90
20125;DHT22;10223;50.862;4.360;2024-03-07T04:59:11;6.60;99.90
20125;DHT22;10223;50.862;4.360;2024-03-07T05:01:38;6.60;99.90
20125;DHT22;10223;50.862;4.360;2024-03-07T05:04:06;6.70;99.90
20125;DHT22;10223;50.862;4.360;2024-03-07T05:06:33;6.60;99.90
20125;DHT22;10223;50.862;4.360;2024-03-07T05:09:02;6.60;99.90
20125;DHT22;10223;50.862;4.360;2024-03-07T05:11:29;6.30;99.90
20125;DHT22;10223;50.862;4.360;2024-03-07T05:13:57;6.40;99.90
20125;DHT22;10223;50.862;4.360;2024-03-07T05:16:24;6.50;99.90
20125;DHT22;10223;50.862;4.360;2024-03-07T05:18:51;6.40;99.90
20125;DHT22;10223;50.862;4.360;2024-03-07T05:21:19;6.20;99.90
20125;DHT22;10223;50.862;4.360;2024-03-07T05:24:08;6.20;99.90
20125;DHT22;10223;50.862;4.360;2024-03-07T05:26:35;6.20;99.90
20125;DHT22;10223;50.862;4.360;2024-03-07T05:29:07;6.20;99.90
20125;DHT22;10223;50.862;4.360;2024-03-07T05:31:35;6.30;99.90
20125;DHT22;10223;50.862;4.360;2024-03-07T05:34:02;6.20;99.90
20125;DHT22;10223;50.862;4.360;2024-03-07T05:36:30;6.20;99.90
20125;DHT22;10223;50.862;4.360;2024-03-07T05:38:58;6.50;99.90
20125;DHT22;10223;50.862;4.360;2024-03-07T05:41:28;6.50;99.90
20125;DHT22;10223;50.862;4.360;2024-03-07T05:43:55;6.60;99.90
20125;DHT22;10223;50.862;4.360;2024-03-07T05:46:22;6.60;99.90
20125;DHT22;10223;50.862;4.360;2024-03-07T05:48:49;6.50;99.90
20125;DHT22;10223;50.862;4.360;2024-03-07T05:51:21;6.20;99.90
20125;DHT22;10223;50.862;4.360;2024-03-07T05:53:48;6.20;99.90
20125;DHT22;10223;50.862;4.360;2024-03-07T05:56:15;6.20;99.90
20125;DHT22;10223;50.862;4.360;2024-03-07T05:58:44;6.10;99.90
20125;DHT22;10223;50.862;4.360;2024-03-07T06:01:11;6.20;99.90
20125;DHT22;10223;50.862;4.360;2024-03-07T06:03:39;6.10;99.90
20125;DHT22;10223;50.862;4.360;2024-03-07T06:06:06;6.00;99.90
20125;DHT22;10223;50.862;4.360;2024-03-07T06:08:37;5.90;99.90
20125;DHT22;10223;50.862;4.360;2024-03-07T06:11:08;6.00;99.90
20125;DHT22;10223;50.862;4.360;2024-03-07T06:13:35;6.00;99.90
20125;DHT22;10223;50.862;4.360;2024-03-07T06:16:04;6.00;99.90
20125;DHT22;10223;50.862;4.360;2024-03-07T06:18:33;6.10;99.90
20125;DHT22;10223;50.862;4.360;2024-03-07T06:21:01;6.00;99.90
20125;DHT22;10223;50.862;4.360;2024-03-07T06:23:30;5.90;99.90
20125;DHT22;10223;50.862;4.360;2024-03-07T06:25:57;5.90;99.90
20125;DHT22;10223;50.862;4.360;2024-03-07T06:28:25;5.90;99.90
20125;DHT22;10223;50.862;4.360;2024-03-07T06:30:55;5.90;99.90
20125;DHT22;10223;50.862;4.360;2024-03-07T06:33:24;6.00;99.90
20125;DHT22;10223;50.862;4.360;2024-03-07T06:35:51;6.00;99.90
20125;DHT22;10223;50.862;4.360;2024-03-07T06:38:18;6.00;99.90
20125;DHT22;10223;50.862;4.360;2024-03-07T06:40:45;6.10;99.90
20125;DHT22;10223;50.862;4.360;2024-03-07T06:43:12;6.30;99.90
20125;DHT22;10223;50.862;4.360;2024-03-07T06:45:39;6.30;99.90
20125;DHT22;10223;50.862;4.360;2024-03-07T06:48:07;6.40;99.90
20125;DHT22;10223;50.862;4.360;2024-03-07T06:50:36;6.50;99.90
20125;DHT22;10223;50.862;4.360;2024-03-07T06:53:04;6.50;99.90
20125;DHT22;10223;50.862;4.360;2024-03-07T06:55:32;6.30;99.90
20125;DHT22;10223;50.862;4.360;2024-03-07T06:58:01;6.20;99.90
20125;DHT22;10223;50.862;4.360;2024-03-07T07:00:30;5.90;99.90
20125;DHT22;10223;50.862;4.360;2024-03-07T07:03:01;5.80;99.90
20125;DHT22;10223;50.862;4.360;2024-03-07T07:05:30;5.90;99.90
20125;DHT22;10223;50.862;4.360;2024-03-07T07:07:59;5.90;99.90
20125;DHT22;10223;50.862;4.360;2024-03-07T07:10:26;6.10;99.90
20125;DHT22;10223;50.862;4.360;2024-03-07T07:12:53;6.40;99.90
20125;DHT22;10223;50.862;4.360;2024-03-07T07:15:21;6.20;99.90
20125;DHT22;10223;50.862;4.360;2024-03-07T07:17:48;6.20;99.90
20125;DHT22;10223;50.862;4.360;2024-03-07T07:20:16;6.30;99.90
20125;DHT22;10223;50.862;4.360;2024-03-07T07:22:45;6.20;99.90
20125;DHT22;10223;50.862;4.360;2024-03-07T07:25:14;6.30;99.90
20125;DHT22;10223;50.862;4.360;2024-03-07T07:27:43;6.30;99.90
20125;DHT22;10223;50.862;4.360;2024-03-07T07:30:12;6.40;99.90
20125;DHT22;10223;50.862;4.360;2024-03-07T07:32:39;6.50;99.90
20125;DHT22;10223;50.862;4.360;2024-03-07T07:35:07;6.60;99.90
20125;DHT22;10223;50.862;4.360;2024-03-07T07:37:37;6.50;99.90
20125;DHT22;10223;50.862;4.360;2024-03-07T07:40:05;6.40;99.90
20125;DHT22;10223;50.862;4.360;2024-03-07T07:42:36;6.30;99.90
20125;DHT22;10223;50.862;4.360;2024-03-07T07:45:06;6.30;99.90
20125;DHT22;10223;50.862;4.360;2024-03-07T07:47:37;6.30;99.90
20125;DHT22;10223;50.862;4.360;2024-03-07T07:50:07;6.40;99.90
20125;DHT22;10223;50.862;4.360;2024-03-07T07:52:42;6.50;99.90
20125;DHT22;10223;50.862;4.360;2024-03-07T07:55:10;6.40;99.90
20125;DHT22;10223;50.862;4.360;2024-03-07T07:57:42;6.40;99.90
20125;DHT22;10223;50.862;4.360;2024-03-07T08:00:12;6.20;99.90
20125;DHT22;10223;50.862;4.360;2024-03-07T08:02:48;6.30;99.90
20125;DHT22;10223;50.862;4.360;2024-03-07T08:05:15;6.50;99.90
20125;DHT22;10223;50.862;4.360;2024-03-07T08:07:43;6.40;99.90
20125;DHT22;10223;50.862;4.360;2024-03-07T08:10:10;6.20;99.90
20125;DHT22;10223;50.862;4.360;2024-03-07T08:12:37;6.20;99.90
20125;DHT22;10223;50.862;4.360;2024-03-07T08:15:08;6.40;99.90
20125;DHT22;10223;50.862;4.360;2024-03-07T08:17:40;6.60;99.90
20125;DHT22;10223;50.862;4.360;2024-03-07T08:20:10;6.40;99.90
20125;DHT22;10223;50.862;4.360;2024-03-07T08:22:37;6.30;99.90
20125;DHT22;10223;50.862;4.360;2024-03-07T08:25:06;6.40;99.90
20125;DHT22;10223;50.862;4.360;2024-03-07T08:27:35;6.40;99.90
20125;DHT22;10223;50.862;4.360;2024-03-07T08:30:03;6.40;99.90
20125;DHT22;10223;50.862;4.360;2024-03-07T08:32:33;6.40;99.90
20125;DHT22;10223;50.862;4.360;2024-03-07T08:35:03;6.50;99.90
20125;DHT22;10223;50.862;4.360;2024-03-07T08:37:33;6.30;99.90
20125;DHT22;10223;50.862;4.360;2024-03-07T08:40:00;6.30;99.90
20125;DHT22;10223;50.862;4.360;2024-03-07T08:42:29;6.30;99.90
20125;DHT22;10223;50.862;4.360;2024-03-07T08:44:58;6.30;99.90
20125;DHT22;10223;50.862;4.360;2024-03-07T08:47:25;6.40;99.90
20125;DHT22;10223;50.862;4.360;2024-03-07T08:49:53;6.40;99.90
20125;DHT22;10223;50.862;4.360;2024-03-07T08:52:20;6.50;99.90
20125;DHT22;10223;50.862;4.360;2024-03-07T08:54:47;6.70;99.90
20125;DHT22;10223;50.862;4.360;2024-03-07T08:57:15;6.80;99.90
20125;DHT22;10223;50.862;4.360;2024-03-07T08:59:42;6.80;99.90
20125;DHT22;10223;50.862;4.360;2024-03-07T09:02:10;6.90;99.90
20125;DHT22;10223;50.862;4.360;2024-03-07T09:04:38;6.70;99.90
20125;DHT22;10223;50.862;4.360;2024-03-07T09:07:06;6.70;99.90
20125;DHT22;10223;50.862;4.360;2024-03-07T09:09:34;6.80;99.90
20125;DHT22;10223;50.862;4.360;2024-03-07T09:12:01;6.70;99.90
20125;DHT22;10223;50.862;4.360;2024-03-07T09:14:28;6.80;99.90
20125;DHT22;10223;50.862;4.360;2024-03-07T09:16:56;6.80;99.90
20125;DHT22;10223;50.862;4.360;2024-03-07T09:19:23;6.90;99.90
20125;DHT22;10223;50.862;4.360;2024-03-07T09:21:51;7.00;99.90
20125;DHT22;10223;50.862;4.360;2024-03-07T09:24:20;7.30;99.90
20125;DHT22;10223;50.862;4.360;2024-03-07T09:26:48;7.10;99.90
20125;DHT22;10223;50.862;4.360;2024-03-07T09:29:16;7.20;99.90
20125;DHT22;10223;50.862;4.360;2024-03-07T09:31:43;7.30;99.90
20125;DHT22;10223;50.862;4.360;2024-03-07T09:34:11;7.30;99.90
20125;DHT22;10223;50.862;4.360;2024-03-07T09:36:38;7.40;99.90
20125;DHT22;10223;50.862;4.360;2024-03-07T09:39:07;7.20;99.90
20125;DHT22;10223;50.862;4.360;2024-03-07T09:41:36;7.30;99.90
20125;DHT22;10223;50.862;4.360;2024-03-07T09:44:04;7.40;99.90
20125;DHT22;10223;50.862;4.360;2024-03-07T09:46:32;7.70;99.90
20125;DHT22;10223;50.862;4.360;2024-03-07T09:49:00;8.00;99.90
20125;DHT22;10223;50.862;4.360;2024-03-07T09:51:28;8.00;99.90
20125;DHT22;10223;50.862;4.360;2024-03-07T09:53:57;8.20;99.90
20125;DHT22;10223;50.862;4.360;2024-03-07T09:56:27;8.50;99.90
20125;DHT22;10223;50.862;4.360;2024-03-07T09:58:57;8.80;99.90
20125;DHT22;10223;50.862;4.360;2024-03-07T10:01:26;9.10;99.90
20125;DHT22;10223;50.862;4.360;2024-03-07T10:03:58;9.30;99.90
20125;DHT22;10223;50.862;4.360;2024-03-07T10:06:27;9.70;99.90
20125;DHT22;10223;50.862;4.360;2024-03-07T10:08:55;10.20;99.90
20125;DHT22;10223;50.862;4.360;2024-03-07T10:11:24;10.40;99.90
20125;DHT22;10223;50.862;4.360;2024-03-07T10:13:53;10.50;99.90
20125;DHT22;10223;50.862;4.360;2024-03-07T10:16:22;10.60;99.90
20125;DHT22;10223;50.862;4.360;2024-03-07T10:18:49;11.10;99.90
20125;DHT22;10223;50.862;4.360;2024-03-07T10:21:19;11.50;99.90
20125;DHT22;10223;50.862;4.360;2024-03-07T10:23:46;11.60;99.90
20125;DHT22;10223;50.862;4.360;2024-03-07T10:26:13;12.00;99.90
20125;DHT22;10223;50.862;4.360;2024-03-07T10:28:40;12.40;99.90
20125;DHT22;10223;50.862;4.360;2024-03-07T10:31:07;12.60;99.90
20125;DHT22;10223;50.862;4.360;2024-03-07T10:33:39;13.00;99.90
20125;DHT22;10223;50.862;4.360;2024-03-07T10:36:09;12.90;99.90
20125;DHT22;10223;50.862;4.360;2024-03-07T10:38:39;12.90;99.90
20125;DHT22;10223;50.862;4.360;2024-03-07T10:41:06;13.10;99.90
20125;DHT22;10223;50.862;4.360;2024-03-07T10:43:36;13.00;99.90
20125;DHT22;10223;50.862;4.360;2024-03-07T10:46:10;13.10;99.90
20125;DHT22;10223;50.862;4.360;2024-03-07T10:48:40;13.20;99.90
20125;DHT22;10223;50.862;4.360;2024-03-07T10:51:16;13.40;99.90
20125;DHT22;10223;50.862;4.360;2024-03-07T10:53:55;13.30;99.90
20125;DHT22;10223;50.862;4.360;2024-03-07T10:56:32;13.80;99.90
20125;DHT22;10223;50.862;4.360;2024-03-07T10:59:07;13.80;99.90
20125;DHT22;10223;50.862;4.360;2024-03-07T11:01:45;13.90;99.90
20125;DHT22;10223;50.862;4.360;2024-03-07T11:04:17;14.10;99.90
20125;DHT22;10223;50.862;4.360;2024-03-07T11:06:44;14.30;99.90
20125;DHT22;10223;50.862;4.360;2024-03-07T11:09:11;14.60;99.90
20125;DHT22;10223;50.862;4.360;2024-03-07T11:11:40;15.00;99.90
20125;DHT22;10223;50.862;4.360;2024-03-07T11:14:09;15.20;99.90
20125;DHT22;10223;50.862;4.360;2024-03-07T11:16:38;15.10;99.90
20125;DHT22;10223;50.862;4.360;2024-03-07T11:19:26;15.10;99.90
20125;DHT22;10223;50.862;4.360;2024-03-07T11:21:54;14.50;99.90
20125;DHT22;10223;50.862;4.360;2024-03-07T11:24:25;14.60;99.90
20125;DHT22;10223;50.862;4.360;2024-03-07T11:26:55;14.60;99.90
20125;DHT22;10223;50.862;4.360;2024-03-07T11:29:45;14.80;99.90
20125;DHT22;10223;50.862;4.360;2024-03-07T11:32:14;14.60;99.90
20125;DHT22;10223;50.862;4.360;2024-03-07T11:34:44;14.00;99.90
20125;DHT22;10223;50.862;4.360;2024-03-07T11:37:17;13.20;99.90
20125;DHT22;10223;50.862;4.360;2024-03-07T11:39:48;13.40;99.90
20125;DHT22;10223;50.862;4.360;2024-03-07T11:42:22;13.10;99.90
20125;DHT22;10223;50.862;4.360;2024-03-07T11:44:51;12.80;99.90
20125;DHT22;10223;50.862;4.360;2024-03-07T11:47:18;12.40;99.90
20125;DHT22;10223;50.862;4.360;2024-03-07T11:49:46;12.10;99.90
20125;DHT22;10223;50.862;4.360;2024-03-07T11:52:14;12.20;99.90
20125;DHT22;10223;50.862;4.360;2024-03-07T11:54:42;12.50;99.90
20125;DHT22;10223;50.862;4.360;2024-03-07T11:57:13;12.20;99.90
20125;DHT22;10223;50.862;4.360;2024-03-07T11:59:42;11.90;99.90
20125;DHT22;10223;50.862;4.360;2024-03-07T12:02:12;12.00;99.90
20125;DHT22;10223;50.862;4.360;2024-03-07T12:04:41;11.90;99.90
20125;DHT22;10223;50.862;4.360;2024-03-07T12:07:09;12.20;99.90
20125;DHT22;10223;50.862;4.360;2024-03-07T12:09:38;12.50;99.90
20125;DHT22;10223;50.862;4.360;2024-03-07T12:12:05;12.50;99.90
20125;DHT22;10223;50.862;4.360;2024-03-07T12:14:33;12.30;99.90
20125;DHT22;10223;50.862;4.360;2024-03-07T12:17:01;12.30;99.90
20125;DHT22;10223;50.862;4.360;2024-03-07T12:19:31;12.40;99.90
20125;DHT22;10223;50.862;4.360;2024-03-07T12:22:00;12.10;99.90
20125;DHT22;10223;50.862;4.360;2024-03-07T12:24:29;12.30;99.90
20125;DHT22;10223;50.862;4.360;2024-03-07T12:27:07;12.20;99.90
20125;DHT22;10223;50.862;4.360;2024-03-07T12:29:35;12.10;99.90
20125;DHT22;10223;50.862;4.360;2024-03-07T12:32:04;12.20;99.90
20125;DHT22;10223;50.862;4.360;2024-03-07T12:34:32;12.60;99.90
20125;DHT22;10223;50.862;4.360;2024-03-07T12:37:02;12.30;99.90
20125;DHT22;10223;50.862;4.360;2024-03-07T12:39:32;12.30;99.90
20125;DHT22;10223;50.862;4.360;2024-03-07T12:42:03;12.30;99.90
20125;DHT22;10223;50.862;4.360;2024-03-07T12:44:39;12.20;99.90
20125;DHT22;10223;50.862;4.360;2024-03-07T12:47:12;12.20;99.90
20125;DHT22;10223;50.862;4.360;2024-03-07T12:49:40;12.20;99.90
20125;DHT22;10223;50.862;4.360;2024-03-07T12:52:07;12.20;99.90
20125;DHT22;10223;50.862;4.360;2024-03-07T12:54:36;12.70;99.90
20125;DHT22;10223;50.862;4.360;2024-03-07T12:57:06;13.30;99.90
20125;DHT22;10223;50.862;4.360;2024-03-07T12:59:34;13.50;99.90
20125;DHT22;10223;50.862;4.360;2024-03-07T13:02:03;14.00;99.90
20125;DHT22;10223;50.862;4.360;2024-03-07T13:04:32;14.10;99.90
20125;DHT22;10223;50.862;4.360;2024-03-07T13:06:59;13.60;99.90
20125;DHT22;10223;50.862;4.360;2024-03-07T13:09:29;13.10;99.90
20125;DHT22;10223;50.862;4.360;2024-03-07T13:11:58;12.90;99.90
20125;DHT22;10223;50.862;4.360;2024-03-07T13:14:26;12.60;99.90
20125;DHT22;10223;50.862;4.360;2024-03-07T13:16:56;12.40;99.90
20125;DHT22;10223;50.862;4.360;2024-03-07T13:19:25;12.50;99.90
20125;DHT22;10223;50.862;4.360;2024-03-07T13:21:53;12.50;99.90
20125;DHT22;10223;50.862;4.360;2024-03-07T13:24:20;13.00;99.90
20125;DHT22;10223;50.862;4.360;2024-03-07T13:26:47;13.90;99.90
20125;DHT22;10223;50.862;4.360;2024-03-07T13:29:16;14.30;99.90
20125;DHT22;10223;50.862;4.360;2024-03-07T13:31:49;14.40;99.90
20125;DHT22;10223;50.862;4.360;2024-03-07T13:34:15;15.20;99.90
20125;DHT22;10223;50.862;4.360;2024-03-07T13:36:43;15.80;99.90
20125;DHT22;10223;50.862;4.360;2024-03-07T13:39:12;15.80;99.90
20125;DHT22;10223;50.862;4.360;2024-03-07T13:41:40;15.70;99.90
20125;DHT22;10223;50.862;4.360;2024-03-07T13:44:07;15.60;99.90
20125;DHT22;10223;50.862;4.360;2024-03-07T13:46:37;15.60;99.90
20125;DHT22;10223;50.862;4.360;2024-03-07T13:49:04;15.10;99.90
20125;DHT22;10223;50.862;4.360;2024-03-07T13:51:38;15.10;99.90
20125;DHT22;10223;50.862;4.360;2024-03-07T13:54:15;15.10;99.90
20125;DHT22;10223;50.862;4.360;2024-03-07T13:57:08;15.00;99.90
20125;DHT22;10223;50.862;4.360;2024-03-07T13:59:54;14.80;99.90
20125;DHT22;10223;50.862;4.360;2024-03-07T14:02:42;15.20;99.90
20125;DHT22;10223;50.862;4.360;2024-03-07T14:15:45;16.20;99.90
20125;DHT22;10223;50.862;4.360;2024-03-07T14:21:47;16.20;99.90
20125;DHT22;10223;50.862;4.360;2024-03-07T14:27:22;16.30;99.90
20125;DHT22;10223;50.862;4.360;2024-03-07T14:30:07;17.20;99.90
20125;DHT22;10223;50.862;4.360;2024-03-07T14:32:43;16.70;99.90
20125;DHT22;10223;50.862;4.360;2024-03-07T14:35:21;16.20;99.90
20125;DHT22;10223;50.862;4.360;2024-03-07T14:37:54;15.70;99.90
20125;DHT22;10223;50.862;4.360;2024-03-07T14:40:22;16.30;99.90
20125;DHT22;10223;50.862;4.360;2024-03-07T14:42:54;16.30;99.90
20125;DHT22;10223;50.862;4.360;2024-03-07T14:45:25;16.40;99.90
20125;DHT22;10223;50.862;4.360;2024-03-07T14:47:53;16.30;99.90
20125;DHT22;10223;50.862;4.360;2024-03-07T14:50:22;16.20;99.90
20125;DHT22;10223;50.862;4.360;2024-03-07T14:52:48;16.10;99.90
20125;DHT22;10223;50.862;4.360;2024-03-07T14:55:17;15.80;99.90
20125;DHT22;10223;50.862;4.360;2024-03-07T14:57:45;15.30;99.90
20125;DHT22;10223;50.862;4.360;2024-03-07T15:00:13;15.20;99.90
20125;DHT22;10223;50.862;4.360;2024-03-07T15:02:46;15.10;99.90
20125;DHT22;10223;50.862;4.360;2024-03-07T15:05:14;15.20;99.90
20125;DHT22;10223;50.862;4.360;2024-03-07T15:07:42;15.30;99.90
20125;DHT22;10223;50.862;4.360;2024-03-07T15:10:16;15.20;99.90
20125;DHT22;10223;50.862;4.360;2024-03-07T15:12:46;15.50;99.90
20125;DHT22;10223;50.862;4.360;2024-03-07T15:15:13;15.40;99.90
20125;DHT22;10223;50.862;4.360;2024-03-07T15:17:41;15.50;99.90
20125;DHT22;10223;50.862;4.360;2024-03-07T15:20:09;15.10;99.90
20125;DHT22;10223;50.862;4.360;2024-03-07T15:22:48;15.30;99.90
20125;DHT22;10223;50.862;4.360;2024-03-07T15:25:16;15.90;99.90
20125;DHT22;10223;50.862;4.360;2024-03-07T15:27:43;15.70;99.90
20125;DHT22;10223;50.862;4.360;2024-03-07T15:30:15;15.50;99.90
20125;DHT22;10223;50.862;4.360;2024-03-07T15:32:42;15.00;99.90
20125;DHT22;10223;50.862;4.360;2024-03-07T15:35:09;15.00;99.90
20125;DHT22;10223;50.862;4.360;2024-03-07T15:37:43;15.00;99.90
20125;DHT22;10223;50.862;4.360;2024-03-07T15:40:11;14.40;99.90
20125;DHT22;10223;50.862;4.360;2024-03-07T15:42:41;14.10;99.90
20125;DHT22;10223;50.862;4.360;2024-03-07T15:45:12;13.90;99.90
20125;DHT22;10223;50.862;4.360;2024-03-07T15:47:48;13.10;99.90
20125;DHT22;10223;50.862;4.360;2024-03-07T15:50:15;12.80;99.90
20125;DHT22;10223;50.862;4.360;2024-03-07T15:52:44;12.80;99.90
20125;DHT22;10223;50.862;4.360;2024-03-07T15:55:12;12.50;99.90
20125;DHT22;10223;50.862;4.360;2024-03-07T15:57:44;12.40;99.90
20125;DHT22;10223;50.862;4.360;2024-03-07T16:00:14;12.10;99.90
20125;DHT22;10223;50.862;4.360;2024-03-07T16:02:53;11.80;99.90
20125;DHT22;10223;50.862;4.360;2024-03-07T16:05:21;11.80;99.90
20125;DHT22;10223;50.862;4.360;2024-03-07T16:07:50;11.70;99.90